AAL5077 KTPA-KISP
Flight info
| Callsign | AAL5077 |
|---|---|
| Flight time | N/A |
| Altitude | 35000 |
| Route | BAYPO2 CAMJO Q109 DFENC SAWED Q97 KALDA SARDI1 |
| Aircraft | A321/M-SDE3FGHIRWY/LB1 |
Departure
| Time | 2026-04-30 22:26 |
|---|---|
| Airport | Tampa International Airport (KTPA) |
Arrival
| Time | N/A |
|---|---|
| Airport | Long Island MacArthur Airport (KISP) |
| Time | Latitude | Longitude | Altitude | Speed | Heading |
|---|---|---|---|---|---|
| 2026-04-30 21:49 | 27.98038 | -82.53881 | 44 ft | 0 kts | 91° |
| 2026-04-30 22:17 | 27.98038 | -82.53901 | 44 ft | 4 kts | 91° |
| 2026-04-30 22:18 | 27.98039 | -82.53932 | 44 ft | 4 kts | 91° |
| 2026-04-30 22:18 | 27.98028 | -82.53971 | 42 ft | 4 kts | 4° |
| 2026-04-30 22:19 | 27.98004 | -82.53973 | 44 ft | 1 kts | 1° |
| 2026-04-30 22:21 | 27.98006 | -82.53972 | 44 ft | 1 kts | 1° |
| 2026-04-30 22:21 | 27.98037 | -82.53971 | 47 ft | 10 kts | 1° |
| 2026-04-30 22:21 | 27.98129 | -82.53968 | 47 ft | 15 kts | 1° |
| 2026-04-30 22:22 | 27.98232 | -82.53964 | 47 ft | 15 kts | 2° |
| 2026-04-30 22:22 | 27.98337 | -82.53960 | 47 ft | 15 kts | 2° |
| 2026-04-30 22:22 | 27.98445 | -82.53957 | 48 ft | 16 kts | 1° |
| 2026-04-30 22:22 | 27.98556 | -82.53954 | 48 ft | 16 kts | 2° |
| 2026-04-30 22:23 | 27.98671 | -82.53950 | 47 ft | 17 kts | 2° |
| 2026-04-30 22:23 | 27.98791 | -82.53945 | 47 ft | 18 kts | 2° |
| 2026-04-30 22:23 | 27.98915 | -82.53941 | 47 ft | 18 kts | 1° |
| 2026-04-30 22:23 | 27.99042 | -82.53937 | 46 ft | 19 kts | 1° |
| 2026-04-30 22:24 | 27.99173 | -82.53933 | 46 ft | 19 kts | 2° |
| 2026-04-30 22:24 | 27.99307 | -82.53931 | 46 ft | 18 kts | 348° |
| 2026-04-30 22:24 | 27.99354 | -82.54038 | 46 ft | 16 kts | 273° |
| 2026-04-30 22:24 | 27.99310 | -82.54132 | 46 ft | 14 kts | 189° |
| 2026-04-30 22:25 | 27.99270 | -82.54136 | 47 ft | 0 kts | 181° |
| 2026-04-30 22:25 | 27.99248 | -82.54136 | 47 ft | 20 kts | 181° |
| 2026-04-30 22:26 | 27.98047 | -82.54184 | 48 ft | 144 kts | 182° |
| 2026-04-30 22:26 | 27.96910 | -82.54210 | 194 ft | 174 kts | 185° |
| 2026-04-30 22:26 | 27.95693 | -82.54174 | 752 ft | 175 kts | 186° |
| 2026-04-30 22:27 | 27.94429 | -82.54190 | 1150 ft | 193 kts | 185° |
| 2026-04-30 22:27 | 27.93005 | -82.54228 | 1404 ft | 215 kts | 185° |
| 2026-04-30 22:27 | 27.90084 | -82.54312 | 2864 ft | 202 kts | 185° |
| 2026-04-30 22:28 | 27.87197 | -82.54238 | 3749 ft | 221 kts | 182° |
| 2026-04-30 22:28 | 27.85615 | -82.54196 | 4134 ft | 236 kts | 185° |
| 2026-04-30 22:29 | 27.80157 | -82.54277 | 5414 ft | 274 kts | 182° |
| 2026-04-30 22:29 | 27.78231 | -82.54310 | 5875 ft | 280 kts | 182° |
| 2026-04-30 22:30 | 27.70639 | -82.55681 | 5987 ft | 276 kts | 196° |
| 2026-04-30 22:31 | 27.65783 | -82.58601 | 6036 ft | 268 kts | 242° |
| 2026-04-30 22:32 | 27.66168 | -82.64548 | 7821 ft | 274 kts | 309° |
| 2026-04-30 22:32 | 27.69530 | -82.66410 | 9084 ft | 287 kts | 355° |
| 2026-04-30 22:33 | 27.75699 | -82.65426 | 10337 ft | 318 kts | 4° |
| 2026-04-30 22:33 | 27.80300 | -82.64616 | 10642 ft | 352 kts | 5° |
| 2026-04-30 22:34 | 27.87704 | -82.63303 | 12157 ft | 364 kts | 4° |
| 2026-04-30 22:35 | 27.92758 | -82.62406 | 13220 ft | 370 kts | 4° |
| 2026-04-30 22:36 | 28.03085 | -82.60570 | 15318 ft | 380 kts | 4° |
| 2026-04-30 22:36 | 28.05698 | -82.60106 | 15867 ft | 382 kts | 4° |
| 2026-04-30 22:37 | 28.13620 | -82.58700 | 17393 ft | 389 kts | 4° |
| 2026-04-30 22:37 | 28.16306 | -82.58219 | 17894 ft | 392 kts | 4° |
| 2026-04-30 22:37 | 28.21731 | -82.57644 | 18762 ft | 391 kts | 353° |
| 2026-04-30 22:38 | 28.27209 | -82.57818 | 19587 ft | 397 kts | 353° |
| 2026-04-30 22:38 | 28.32772 | -82.57978 | 20383 ft | 402 kts | 353° |
| 2026-04-30 22:39 | 28.35582 | -82.58058 | 20768 ft | 405 kts | 353° |
| 2026-04-30 22:39 | 28.44121 | -82.58286 | 21832 ft | 413 kts | 353° |
| 2026-04-30 22:40 | 28.52818 | -82.58499 | 22814 ft | 421 kts | 352° |
| 2026-04-30 22:41 | 28.61681 | -82.58718 | 23688 ft | 428 kts | 352° |
| 2026-04-30 22:41 | 28.67647 | -82.58936 | 24221 ft | 427 kts | 347° |
| 2026-04-30 22:42 | 28.79531 | -82.60587 | 25298 ft | 433 kts | 347° |
| 2026-04-30 22:43 | 28.85542 | -82.61432 | 25822 ft | 437 kts | 347° |
| 2026-04-30 22:43 | 28.91594 | -82.62276 | 26365 ft | 440 kts | 347° |
| 2026-04-30 22:44 | 28.97699 | -82.63128 | 26901 ft | 443 kts | 347° |
| 2026-04-30 22:45 | 29.10034 | -82.64859 | 27874 ft | 451 kts | 347° |
| 2026-04-30 22:45 | 29.16241 | -82.65731 | 28366 ft | 454 kts | 347° |
| 2026-04-30 22:46 | 29.22546 | -82.66613 | 28878 ft | 458 kts | 347° |
| 2026-04-30 22:47 | 29.35229 | -82.68390 | 30151 ft | 458 kts | 346° |
| 2026-04-30 22:47 | 29.41536 | -82.69247 | 30763 ft | 457 kts | 349° |
| 2026-04-30 22:48 | 29.47932 | -82.69298 | 31388 ft | 459 kts | 353° |
| 2026-04-30 22:49 | 29.57471 | -82.69220 | 32314 ft | 455 kts | 353° |
| 2026-04-30 22:49 | 29.66901 | -82.69164 | 33344 ft | 447 kts | 353° |
| 2026-04-30 22:50 | 29.79252 | -82.69075 | 34476 ft | 441 kts | 353° |
| 2026-04-30 22:51 | 29.85331 | -82.69041 | 34870 ft | 439 kts | 352° |
| 2026-04-30 22:52 | 29.94451 | -82.68984 | 34901 ft | 433 kts | 351° |
| 2026-04-30 22:53 | 30.05446 | -82.68921 | 34891 ft | 431 kts | 351° |
| 2026-04-30 22:53 | 30.14458 | -82.68863 | 34891 ft | 431 kts | 351° |
| 2026-04-30 22:55 | 30.29453 | -82.68769 | 34927 ft | 430 kts | 350° |
| 2026-04-30 22:56 | 30.41388 | -82.68690 | 34917 ft | 428 kts | 350° |
| 2026-04-30 22:57 | 30.56378 | -82.67494 | 34890 ft | 442 kts | 0° |
| 2026-04-30 22:58 | 30.68434 | -82.64895 | 34888 ft | 442 kts | 360° |
| 2026-04-30 22:59 | 30.86545 | -82.61041 | 34874 ft | 440 kts | 360° |